createdAt,value
2018-11-07T00:00:16.963Z,12.07
2018-11-07T00:02:44.837Z,12.83
2018-11-07T00:05:13.191Z,13.20
2018-11-07T00:07:41.170Z,11.53
2018-11-07T00:10:09.568Z,13.93
2018-11-07T00:12:37.574Z,13.33
2018-11-07T00:15:06.567Z,12.20
2018-11-07T00:17:34.603Z,12.40
2018-11-07T00:20:02.381Z,10.83
2018-11-07T00:22:30.108Z,14.30
2018-11-07T00:24:57.881Z,15.43
2018-11-07T00:27:25.598Z,10.30
2018-11-07T00:29:53.313Z,10.20
2018-11-07T00:32:21.059Z,14.80
2018-11-07T00:34:48.791Z,13.93
2018-11-07T00:37:16.522Z,13.93
2018-11-07T00:39:50.534Z,18.83
2018-11-07T00:42:24.460Z,16.13
2018-11-07T00:44:58.274Z,14.27
2018-11-07T00:47:32.199Z,13.43
2018-11-07T00:50:10.298Z,11.87
2018-11-07T00:52:44.488Z,12.60
2018-11-07T00:55:18.397Z,11.67
2018-11-07T00:57:52.467Z,12.23
2018-11-07T01:00:26.246Z,12.80
2018-11-07T01:02:59.995Z,11.67
2018-11-07T01:05:33.827Z,13.10
2018-11-07T01:08:07.682Z,12.13
2018-11-07T01:10:41.522Z,10.17
2018-11-07T01:13:15.527Z,10.50
2018-11-07T01:15:49.603Z,9.30
2018-11-07T01:18:23.418Z,9.70
2018-11-07T01:20:57.214Z,11.07
2018-11-07T01:23:30.996Z,8.00
2018-11-07T01:26:04.862Z,10.13
2018-11-07T01:28:38.813Z,9.87
2018-11-07T01:31:12.670Z,9.40
2018-11-07T01:33:46.638Z,8.30
2018-11-07T01:36:20.654Z,10.40
2018-11-07T01:38:54.452Z,10.93
2018-11-07T01:41:28.361Z,8.17
2018-11-07T01:44:02.278Z,9.63
2018-11-07T01:46:36.085Z,10.37
2018-11-07T01:49:09.985Z,6.90
2018-11-07T01:51:43.779Z,10.73
2018-11-07T01:54:17.795Z,12.10
2018-11-07T01:56:51.639Z,9.80
2018-11-07T01:59:25.407Z,8.87
2018-11-07T02:01:59.218Z,6.87
2018-11-07T02:04:33.036Z,8.43
2018-11-07T02:07:07.194Z,8.40
2018-11-07T02:09:40.964Z,8.47
2018-11-07T02:12:14.854Z,8.27
2018-11-07T02:14:48.654Z,7.07
2018-11-07T02:17:22.534Z,7.23
2018-11-07T02:19:56.458Z,7.10
2018-11-07T02:22:30.295Z,7.33
2018-11-07T02:25:04.882Z,8.23
2018-11-07T02:27:39.408Z,7.93
2018-11-07T02:30:14.604Z,11.83
2018-11-07T02:32:48.474Z,9.13
2018-11-07T02:35:22.354Z,7.27
2018-11-07T02:37:56.164Z,7.87
2018-11-07T02:40:30.174Z,7.03
2018-11-07T02:43:04.085Z,9.90
2018-11-07T02:45:37.991Z,7.50
2018-11-07T02:48:12.059Z,9.10
2018-11-07T02:50:45.973Z,7.97
2018-11-07T02:53:19.728Z,5.90
2018-11-07T02:55:53.723Z,8.97
2018-11-07T02:58:27.646Z,8.40
2018-11-07T03:01:01.537Z,6.77
2018-11-07T03:03:35.338Z,5.97
2018-11-07T03:06:09.253Z,6.80
2018-11-07T03:08:43.250Z,6.57
2018-11-07T03:11:17.166Z,6.77
2018-11-07T03:13:50.978Z,5.70
2018-11-07T03:16:24.791Z,6.17
2018-11-07T03:18:58.720Z,9.33
2018-11-07T03:21:32.518Z,6.83
2018-11-07T03:24:06.293Z,6.90
2018-11-07T03:26:40.018Z,5.87
2018-11-07T03:29:13.801Z,8.23
2018-11-07T03:31:47.682Z,6.53
2018-11-07T03:34:21.618Z,6.13
2018-11-07T03:36:55.474Z,7.60
2018-11-07T03:39:29.283Z,10.20
2018-11-07T03:42:03.210Z,6.27
2018-11-07T03:44:36.970Z,8.47
2018-11-07T03:47:10.863Z,5.83
2018-11-07T03:49:44.707Z,8.40
2018-11-07T03:52:18.669Z,7.27
2018-11-07T03:54:52.477Z,9.17
2018-11-07T03:57:26.599Z,6.43
2018-11-07T04:00:00.447Z,6.63
2018-11-07T04:02:34.311Z,7.70
2018-11-07T04:05:09.796Z,7.03
2018-11-07T04:07:43.718Z,9.10
2018-11-07T04:10:17.658Z,8.83
2018-11-07T04:12:51.450Z,10.77
2018-11-07T04:15:25.222Z,7.20
2018-11-07T04:17:59.121Z,10.93
2018-11-07T04:20:33.027Z,8.07
2018-11-07T04:23:06.775Z,9.30
2018-11-07T04:25:40.626Z,12.63
2018-11-07T04:28:14.482Z,11.63
2018-11-07T04:30:48.485Z,9.40
2018-11-07T04:33:22.430Z,11.83
2018-11-07T04:35:56.199Z,11.40
2018-11-07T04:38:30.467Z,13.60
2018-11-07T04:41:04.431Z,12.57
2018-11-07T04:43:38.167Z,14.83
2018-11-07T04:46:11.984Z,9.43
2018-11-07T04:48:46.083Z,9.17
2018-11-07T04:51:19.953Z,11.80
2018-11-07T04:53:53.904Z,10.03
2018-11-07T04:56:27.931Z,11.87
2018-11-07T04:59:01.867Z,14.93
2018-11-07T05:01:35.719Z,13.23
2018-11-07T05:04:09.495Z,15.47
2018-11-07T05:06:43.439Z,17.00
2018-11-07T05:09:17.386Z,13.80
2018-11-07T05:11:51.174Z,15.53
2018-11-07T05:14:25.149Z,13.57
2018-11-07T05:16:59.075Z,11.37
2018-11-07T05:19:32.869Z,11.77
2018-11-07T05:22:06.819Z,17.10
2018-11-07T05:24:40.778Z,14.60
2018-11-07T05:27:14.754Z,11.63
2018-11-07T05:29:48.666Z,10.57
2018-11-07T05:32:22.469Z,13.77
2018-11-07T05:34:56.484Z,13.37
2018-11-07T05:37:30.588Z,13.30
2018-11-07T05:40:04.858Z,12.47
2018-11-07T05:42:38.679Z,17.20
2018-11-07T05:45:12.531Z,15.23
2018-11-07T05:47:46.318Z,17.07
2018-11-07T05:50:20.180Z,19.67
2018-11-07T05:52:54.030Z,15.97
2018-11-07T05:55:27.867Z,22.17
2018-11-07T05:58:02.068Z,23.03
2018-11-07T06:00:35.940Z,19.60
2018-11-07T06:03:09.893Z,24.03
2018-11-07T06:05:43.886Z,17.30
2018-11-07T06:08:17.849Z,24.27
2018-11-07T06:10:52.452Z,22.83
2018-11-07T06:13:26.225Z,26.77
2018-11-07T06:16:00.140Z,22.37
2018-11-07T06:18:34.057Z,20.03
2018-11-07T06:21:08.042Z,25.37
2018-11-07T06:23:49.512Z,17.60
2018-11-07T06:26:23.372Z,19.17
2018-11-07T06:28:58.457Z,16.43
2018-11-07T06:31:32.610Z,17.37
2018-11-07T06:34:08.851Z,15.63
2018-11-07T06:36:42.942Z,16.73
2018-11-07T06:39:16.834Z,16.83
2018-11-07T06:41:50.626Z,15.47
2018-11-07T06:44:24.531Z,17.10
2018-11-07T06:46:58.443Z,14.27
2018-11-07T06:49:32.379Z,13.30
2018-11-07T06:52:06.261Z,15.07
2018-11-07T06:54:40.198Z,16.67
2018-11-07T06:57:13.998Z,12.77
2018-11-07T06:59:47.730Z,14.63
2018-11-07T07:02:21.615Z,12.83
2018-11-07T07:04:55.410Z,15.67
2018-11-07T07:07:29.356Z,14.77
2018-11-07T07:10:03.235Z,14.03
2018-11-07T07:12:37.122Z,14.03
2018-11-07T07:15:13.092Z,14.63
2018-11-07T07:17:47.168Z,16.30
2018-11-07T07:20:21.170Z,18.27
2018-11-07T07:22:55.159Z,17.40
2018-11-07T07:25:29.021Z,15.13
2018-11-07T07:28:02.975Z,18.50
2018-11-07T07:30:36.879Z,17.47
2018-11-07T07:33:10.884Z,13.83
2018-11-07T07:35:44.762Z,15.27
2018-11-07T07:38:18.569Z,16.97
2018-11-07T07:40:52.300Z,22.83
2018-11-07T07:43:26.059Z,25.37
2018-11-07T07:45:59.847Z,20.93
2018-11-07T07:48:33.708Z,18.97
2018-11-07T07:51:07.810Z,16.10
2018-11-07T07:53:41.850Z,18.53
2018-11-07T07:56:15.634Z,17.93
2018-11-07T07:58:49.414Z,18.00
2018-11-07T08:01:23.134Z,19.47
2018-11-07T08:03:57.126Z,18.33
2018-11-07T08:06:34.159Z,17.63
2018-11-07T08:09:10.143Z,19.77
2018-11-07T08:11:44.127Z,22.30
2018-11-07T08:14:18.176Z,22.03
2018-11-07T08:16:52.030Z,19.37
2018-11-07T08:19:25.810Z,24.10
2018-11-07T08:21:59.627Z,20.07
2018-11-07T08:24:33.558Z,18.73
2018-11-07T08:27:07.432Z,19.63
2018-11-07T08:29:41.328Z,23.00
2018-11-07T08:32:15.121Z,26.10
2018-11-07T08:34:49.201Z,25.23
2018-11-07T08:37:23.000Z,22.80
2018-11-07T08:39:56.906Z,27.23
2018-11-07T08:42:30.817Z,22.60
2018-11-07T08:45:05.707Z,19.20
2018-11-07T08:47:41.016Z,26.37
2018-11-07T08:50:16.114Z,22.50
2018-11-07T08:52:50.068Z,20.63
2018-11-07T08:55:23.895Z,21.90
2018-11-07T08:57:57.682Z,28.43
2018-11-07T09:00:31.606Z,25.53
2018-11-07T09:03:05.483Z,22.03
2018-11-07T09:05:39.323Z,20.17
2018-11-07T09:08:13.111Z,25.43
2018-11-07T09:10:47.118Z,30.10
2018-11-07T09:13:20.982Z,21.97
2018-11-07T09:15:55.187Z,22.67
2018-11-07T09:18:29.143Z,26.63
2018-11-07T09:21:02.987Z,21.17
2018-11-07T09:23:36.971Z,22.77
2018-11-07T09:26:10.790Z,21.17
2018-11-07T09:28:44.595Z,23.40
2018-11-07T09:31:18.455Z,20.40
2018-11-07T09:33:52.497Z,21.80
2018-11-07T09:36:26.543Z,20.30
2018-11-07T09:39:00.334Z,20.30
2018-11-07T09:41:34.225Z,17.90
2018-11-07T09:44:08.724Z,21.33
2018-11-07T09:46:42.539Z,19.87
2018-11-07T09:49:16.409Z,19.67
2018-11-07T09:51:50.376Z,15.80
2018-11-07T09:54:24.349Z,23.60
2018-11-07T09:56:58.242Z,16.50
2018-11-07T09:59:32.009Z,17.23
2018-11-07T10:02:06.166Z,14.90
2018-11-07T10:04:40.230Z,14.03
2018-11-07T10:07:13.995Z,16.17
2018-11-07T10:09:47.863Z,15.20
2018-11-07T10:12:21.882Z,15.23
2018-11-07T10:14:55.663Z,14.87
2018-11-07T10:17:29.636Z,13.10
2018-11-07T10:20:04.957Z,12.80
2018-11-07T10:22:38.787Z,12.03
2018-11-07T10:25:13.189Z,12.97
2018-11-07T10:27:47.531Z,11.23
2018-11-07T10:30:21.521Z,13.10
2018-11-07T10:32:55.058Z,10.73
2018-11-07T10:35:28.952Z,11.07
2018-11-07T10:38:03.073Z,9.50
2018-11-07T10:40:36.991Z,12.40
2018-11-07T10:43:10.980Z,8.87
2018-11-07T10:45:44.807Z,10.47
2018-11-07T10:48:18.852Z,12.23
2018-11-07T10:50:52.918Z,8.17
2018-11-07T10:53:26.699Z,10.70
2018-11-07T10:56:00.512Z,9.20
2018-11-07T10:58:34.314Z,8.73
2018-11-07T11:01:11.775Z,6.77
2018-11-07T11:03:45.586Z,8.70
2018-11-07T11:06:19.527Z,9.03
2018-11-07T11:08:53.359Z,7.97
2018-11-07T11:11:27.410Z,6.97
2018-11-07T11:14:01.201Z,6.47
2018-11-07T11:16:35.051Z,7.77
2018-11-07T11:19:09.048Z,9.27
2018-11-07T11:21:42.982Z,7.30
2018-11-07T11:24:16.939Z,9.50
2018-11-07T11:26:51.623Z,9.43
2018-11-07T11:29:25.498Z,7.30
2018-11-07T11:31:59.303Z,6.50
2018-11-07T11:34:33.326Z,6.57
2018-11-07T11:37:07.108Z,6.67
2018-11-07T11:39:40.899Z,11.93
2018-11-07T11:42:14.739Z,7.73
2018-11-07T11:44:48.600Z,8.50
2018-11-07T11:47:22.598Z,7.97
2018-11-07T11:49:56.431Z,7.83
2018-11-07T11:52:30.399Z,6.53
2018-11-07T11:55:04.398Z,8.03
2018-11-07T11:57:38.237Z,5.50
2018-11-07T12:00:14.720Z,8.20
2018-11-07T12:02:48.654Z,6.67
2018-11-07T12:05:22.690Z,7.17
2018-11-07T12:07:56.690Z,6.83
2018-11-07T12:10:30.750Z,6.87
2018-11-07T12:13:04.785Z,8.50
2018-11-07T12:15:38.559Z,7.80
2018-11-07T12:18:12.277Z,9.90
2018-11-07T12:20:46.175Z,7.33
2018-11-07T12:23:20.182Z,6.20
2018-11-07T12:25:53.911Z,8.60
2018-11-07T12:28:27.911Z,6.67
2018-11-07T12:31:01.771Z,6.23
2018-11-07T12:33:35.777Z,5.50
2018-11-07T12:36:09.714Z,6.90
2018-11-07T12:38:43.447Z,7.00
2018-11-07T12:41:17.450Z,5.13
2018-11-07T12:43:51.263Z,6.03
2018-11-07T12:46:25.160Z,7.73
2018-11-07T12:48:59.211Z,5.67
2018-11-07T12:51:33.075Z,4.10
2018-11-07T12:54:07.192Z,4.50
2018-11-07T12:56:41.031Z,3.73
2018-11-07T12:59:14.974Z,4.37
2018-11-07T13:01:48.810Z,17.27
2018-11-07T13:04:22.891Z,28.37
2018-11-07T13:06:56.886Z,8.70
2018-11-07T13:09:30.728Z,15.20
2018-11-07T13:12:04.846Z,7.23
2018-11-07T13:14:38.823Z,5.00
2018-11-07T13:17:12.561Z,5.00
2018-11-07T13:19:46.668Z,4.67
2018-11-07T13:22:20.618Z,3.90
2018-11-07T13:25:01.095Z,4.03
2018-11-07T13:27:34.885Z,4.97
2018-11-07T13:30:12.272Z,4.27
2018-11-07T13:32:46.244Z,7.00
2018-11-07T13:35:20.444Z,6.13
2018-11-07T13:37:54.522Z,6.87
2018-11-07T13:40:28.311Z,7.83
2018-11-07T13:43:02.263Z,4.47
2018-11-07T13:45:36.244Z,3.93
2018-11-07T13:48:10.179Z,5.17
2018-11-07T13:50:43.978Z,9.70
2018-11-07T13:53:17.863Z,11.27
2018-11-07T13:55:51.850Z,25.77
2018-11-07T13:58:25.832Z,23.63
2018-11-07T14:00:59.677Z,22.77
2018-11-07T14:03:33.570Z,37.13
2018-11-07T14:06:07.587Z,46.17
2018-11-07T14:08:41.582Z,28.17
2018-11-07T14:11:15.499Z,8.27
2018-11-07T14:13:49.611Z,7.53
2018-11-07T14:16:23.489Z,5.87
2018-11-07T14:18:57.462Z,8.67
2018-11-07T14:21:31.488Z,8.73
2018-11-07T14:24:06.141Z,5.43
2018-11-07T14:26:40.156Z,5.77
2018-11-07T14:29:14.319Z,6.00
2018-11-07T14:31:48.423Z,10.07
2018-11-07T14:34:22.494Z,5.80
2018-11-07T14:36:56.515Z,6.50
2018-11-07T14:39:30.211Z,7.20
2018-11-07T14:42:04.249Z,6.00
2018-11-07T14:44:38.363Z,9.07
2018-11-07T14:47:12.502Z,9.60
2018-11-07T14:49:46.432Z,8.33
2018-11-07T14:52:20.458Z,12.70
2018-11-07T14:54:54.463Z,5.13
2018-11-07T14:57:28.523Z,5.00
2018-11-07T15:00:02.722Z,4.13
2018-11-07T15:02:36.599Z,4.27
2018-11-07T15:05:11.613Z,4.27
2018-11-07T15:07:45.458Z,6.67
2018-11-07T15:10:19.266Z,8.40
2018-11-07T15:12:53.130Z,7.57
2018-11-07T15:15:27.114Z,5.10
2018-11-07T15:18:01.093Z,6.47
2018-11-07T15:20:34.995Z,7.47
2018-11-07T15:23:08.759Z,5.17
2018-11-07T15:25:45.478Z,8.63
2018-11-07T15:28:19.237Z,9.63
2018-11-07T15:30:53.097Z,19.17
2018-11-07T15:33:27.161Z,14.60
2018-11-07T15:36:01.214Z,33.20
2018-11-07T15:38:34.978Z,24.27
2018-11-07T15:41:08.942Z,18.13
2018-11-07T15:43:42.735Z,14.97
2018-11-07T15:46:16.695Z,15.17
2018-11-07T15:48:50.647Z,25.93
2018-11-07T15:51:29.989Z,20.37
2018-11-07T15:54:04.526Z,42.57
2018-11-07T15:56:38.479Z,23.77
2018-11-07T15:59:12.452Z,21.13
2018-11-07T16:01:46.284Z,22.07
2018-11-07T16:04:20.054Z,21.67
2018-11-07T16:06:54.131Z,20.80
2018-11-07T16:09:28.035Z,18.60
2018-11-07T16:12:01.859Z,20.43
2018-11-07T16:14:36.568Z,26.27
2018-11-07T16:17:10.520Z,26.17
2018-11-07T16:19:44.428Z,31.37
2018-11-07T16:22:18.209Z,36.27
2018-11-07T16:24:52.131Z,33.23
2018-11-07T16:27:25.962Z,29.53
2018-11-07T16:29:59.844Z,39.67
2018-11-07T16:32:33.847Z,41.93
2018-11-07T16:35:08.742Z,48.13
2018-11-07T16:37:43.062Z,44.33
2018-11-07T16:40:17.762Z,53.63
2018-11-07T16:42:51.667Z,55.80
2018-11-07T16:45:25.651Z,50.03
2018-11-07T16:47:59.511Z,52.57
2018-11-07T16:50:33.454Z,51.63
2018-11-07T16:53:07.475Z,51.53
2018-11-07T16:55:41.305Z,53.97
2018-11-07T16:58:15.143Z,53.60
2018-11-07T17:00:49.027Z,43.33
2018-11-07T17:03:22.834Z,40.20
2018-11-07T17:05:56.743Z,41.03
2018-11-07T17:08:30.807Z,44.80
2018-11-07T17:11:04.778Z,40.50
2018-11-07T17:13:38.722Z,40.73
2018-11-07T17:16:12.565Z,41.50
2018-11-07T17:18:46.388Z,35.67
2018-11-07T17:21:20.179Z,38.53
2018-11-07T17:23:54.141Z,41.57
2018-11-07T17:26:27.863Z,41.27
2018-11-07T17:29:01.935Z,37.63
2018-11-07T17:31:36.158Z,42.80
2018-11-07T17:34:10.026Z,51.57
2018-11-07T17:36:43.818Z,49.53
2018-11-07T17:39:17.758Z,55.23
2018-11-07T17:41:51.594Z,56.50
2018-11-07T17:44:25.566Z,56.20
2018-11-07T17:46:59.393Z,56.00
2018-11-07T17:49:33.143Z,57.33
2018-11-07T17:52:07.234Z,54.70
2018-11-07T17:54:41.253Z,56.70
2018-11-07T17:57:15.162Z,55.30
2018-11-07T17:59:48.941Z,53.77
2018-11-07T18:02:22.792Z,45.43
2018-11-07T18:04:56.810Z,51.07
2018-11-07T18:07:31.657Z,52.53
2018-11-07T18:10:07.579Z,57.87
2018-11-07T18:12:41.930Z,58.90
2018-11-07T18:15:15.858Z,57.87
2018-11-07T18:17:49.807Z,55.70
2018-11-07T18:20:23.813Z,54.93
2018-11-07T18:22:57.750Z,55.17
2018-11-07T18:25:31.840Z,55.93
2018-11-07T18:28:05.885Z,56.57
2018-11-07T18:30:39.930Z,51.20
2018-11-07T18:33:13.999Z,55.07
2018-11-07T18:35:48.137Z,54.77
2018-11-07T18:38:22.243Z,57.10
2018-11-07T18:40:56.279Z,57.30
2018-11-07T18:43:30.108Z,55.20
2018-11-07T18:46:03.913Z,55.77
2018-11-07T18:48:37.730Z,60.27
2018-11-07T18:51:11.659Z,60.87
2018-11-07T18:53:45.474Z,60.93
2018-11-07T18:56:19.499Z,52.70
2018-11-07T18:58:53.537Z,55.87
2018-11-07T19:01:27.289Z,58.87
2018-11-07T19:04:01.180Z,54.23
2018-11-07T19:06:35.280Z,51.90
2018-11-07T19:09:09.390Z,48.77
2018-11-07T19:11:43.267Z,52.63
2018-11-07T19:14:17.032Z,54.07
2018-11-07T19:16:50.926Z,56.57
2018-11-07T19:19:24.937Z,60.27
2018-11-07T19:21:59.062Z,55.33
2018-11-07T19:24:33.027Z,51.30
2018-11-07T19:27:06.905Z,52.90
2018-11-07T19:29:40.679Z,51.87
2018-11-07T19:32:14.587Z,52.00
2018-11-07T19:34:48.395Z,44.63
2018-11-07T19:37:22.218Z,38.60
2018-11-07T19:39:56.225Z,26.07
2018-11-07T19:42:30.127Z,23.07
2018-11-07T19:45:05.526Z,20.20
2018-11-07T19:47:39.435Z,14.17
2018-11-07T19:50:14.704Z,13.33
2018-11-07T19:52:49.214Z,11.80
2018-11-07T19:55:24.261Z,11.80
2018-11-07T19:58:00.498Z,15.30
2018-11-07T20:00:34.510Z,13.60
2018-11-07T20:03:08.966Z,56.97
2018-11-07T20:05:43.000Z,52.40
2018-11-07T20:08:16.756Z,30.03
2018-11-07T20:10:50.815Z,21.53
2018-11-07T20:13:24.687Z,16.43
2018-11-07T20:15:58.481Z,33.03
2018-11-07T20:18:32.388Z,49.70
2018-11-07T20:21:06.364Z,62.57
2018-11-07T20:23:40.249Z,29.97
2018-11-07T20:26:14.159Z,38.57
2018-11-07T20:28:48.025Z,30.00
2018-11-07T20:31:22.043Z,38.47
2018-11-07T20:33:56.065Z,22.43
2018-11-07T20:36:29.907Z,45.03
2018-11-07T20:39:05.430Z,25.13
2018-11-07T20:41:39.382Z,26.07
2018-11-07T20:44:13.163Z,25.87
2018-11-07T20:46:47.156Z,35.03
2018-11-07T20:49:21.098Z,48.23
2018-11-07T20:51:54.940Z,39.87
2018-11-07T20:54:28.897Z,44.97
2018-11-07T20:57:02.905Z,42.30
2018-11-07T20:59:36.836Z,32.77
2018-11-07T21:02:10.590Z,50.37
2018-11-07T21:04:44.603Z,42.93
2018-11-07T21:07:18.474Z,38.80
2018-11-07T21:09:52.482Z,38.30
2018-11-07T21:12:26.387Z,35.03
2018-11-07T21:15:00.252Z,41.27
2018-11-07T21:17:34.137Z,34.07
2018-11-07T21:20:08.323Z,32.93
2018-11-07T21:22:42.423Z,30.47
2018-11-07T21:25:16.496Z,27.93
2018-11-07T21:27:50.408Z,31.20
2018-11-07T21:30:24.205Z,31.03
2018-11-07T21:32:58.141Z,29.13
2018-11-07T21:35:32.021Z,31.00
2018-11-07T21:38:06.030Z,30.87
2018-11-07T21:40:39.910Z,31.27
2018-11-07T21:43:13.749Z,31.80
2018-11-07T21:45:47.656Z,31.73
2018-11-07T21:48:21.510Z,33.17
2018-11-07T21:50:55.279Z,31.03
2018-11-07T21:53:29.050Z,30.67
2018-11-07T21:56:03.030Z,32.37
2018-11-07T21:58:37.002Z,27.93
2018-11-07T22:01:10.770Z,29.90
2018-11-07T22:03:44.707Z,29.33
2018-11-07T22:06:19.331Z,28.13
2018-11-07T22:08:53.306Z,30.93
2018-11-07T22:11:27.118Z,31.83
2018-11-07T22:14:00.998Z,32.80
2018-11-07T22:16:35.286Z,34.13
2018-11-07T22:19:09.271Z,30.57
2018-11-07T22:21:43.027Z,29.03
2018-11-07T22:24:17.041Z,29.83
2018-11-07T22:26:50.982Z,27.77
2018-11-07T22:29:24.774Z,29.53
2018-11-07T22:31:58.843Z,29.60
2018-11-07T22:34:32.681Z,27.57
2018-11-07T22:37:06.647Z,29.70
2018-11-07T22:39:40.691Z,31.90
2018-11-07T22:42:14.482Z,31.17
2018-11-07T22:44:48.314Z,34.20
2018-11-07T22:47:22.127Z,29.37
2018-11-07T22:49:56.001Z,33.03
2018-11-07T22:52:29.855Z,35.83
2018-11-07T22:55:03.648Z,33.53
2018-11-07T22:57:37.534Z,33.27
2018-11-07T23:02:21.706Z,32.93
2018-11-07T23:04:55.655Z,34.90
2018-11-07T23:07:29.624Z,30.90
2018-11-07T23:10:03.692Z,31.03
2018-11-07T23:12:37.687Z,31.67
2018-11-07T23:15:15.923Z,28.47
2018-11-07T23:17:50.215Z,29.37
2018-11-07T23:20:24.147Z,30.67
2018-11-07T23:22:57.971Z,27.33
2018-11-07T23:25:31.875Z,25.83
2018-11-07T23:28:05.819Z,25.07
2018-11-07T23:30:39.733Z,24.00
2018-11-07T23:33:13.579Z,21.80
2018-11-07T23:35:47.463Z,21.30
2018-11-07T23:38:21.333Z,24.47
2018-11-07T23:40:55.143Z,19.63
2018-11-07T23:43:29.126Z,22.73
2018-11-07T23:46:03.091Z,17.07
2018-11-07T23:48:36.977Z,13.73
2018-11-07T23:51:10.802Z,10.97
2018-11-07T23:53:44.627Z,11.17
2018-11-07T23:56:18.500Z,11.30
2018-11-07T23:58:52.384Z,9.73
